createdAt,value
2023-05-19T00:03:21.912Z,12.83
2023-05-19T00:18:23.918Z,12.81
2023-05-19T00:33:25.798Z,12.94
2023-05-19T00:48:27.797Z,13.14
2023-05-19T01:03:32.096Z,12.94
2023-05-19T01:18:56.314Z,12.97
2023-05-19T01:34:00.454Z,12.96
2023-05-19T01:49:02.308Z,12.83
2023-05-19T02:04:10.109Z,12.70
2023-05-19T02:19:32.971Z,12.53
2023-05-19T02:34:34.688Z,12.53
2023-05-19T02:49:36.437Z,12.35
2023-05-19T03:04:41.766Z,12.27
2023-05-19T03:19:43.600Z,12.33
2023-05-19T03:34:45.512Z,12.26
2023-05-19T03:49:47.252Z,12.39
2023-05-19T04:04:49.036Z,13.63
2023-05-19T04:19:51.087Z,14.81
2023-05-19T04:34:52.933Z,15.33
2023-05-19T04:49:55.790Z,16.92
2023-05-19T05:04:58.154Z,17.43
2023-05-19T05:20:00.237Z,18.10
2023-05-19T05:35:02.179Z,19.00
2023-05-19T05:50:05.541Z,18.69
2023-05-19T06:05:07.586Z,19.45
2023-05-19T06:20:10.267Z,20.78
2023-05-19T06:35:11.981Z,21.44
2023-05-19T06:50:13.956Z,22.27
2023-05-19T07:05:15.701Z,20.97
2023-05-19T07:20:18.081Z,22.65
2023-05-19T07:35:22.695Z,21.66
2023-05-19T07:50:24.617Z,20.78
2023-05-19T08:05:26.733Z,21.22
2023-05-19T08:20:28.567Z,20.47
2023-05-19T08:35:30.443Z,20.94
2023-05-19T08:50:39.282Z,20.49
2023-05-19T09:05:41.374Z,20.17
2023-05-19T09:20:45.068Z,20.12
2023-05-19T09:35:47.529Z,20.30
2023-05-19T09:50:51.812Z,21.42
2023-05-19T10:05:53.944Z,20.49
2023-05-19T10:20:58.019Z,20.85
2023-05-19T10:36:14.554Z,21.16
2023-05-19T10:51:16.300Z,21.96
2023-05-19T11:06:18.085Z,21.97
2023-05-19T11:21:20.654Z,22.29
2023-05-19T11:36:23.396Z,21.14
2023-05-19T11:51:25.332Z,20.48
2023-05-19T12:06:28.370Z,18.11
2023-05-19T12:21:34.214Z,17.98
2023-05-19T12:36:37.205Z,16.80
2023-05-19T12:51:38.976Z,17.28
2023-05-19T13:06:41.861Z,17.91
2023-05-19T13:21:44.146Z,18.55
2023-05-19T13:36:48.274Z,18.67
2023-05-19T13:51:50.136Z,18.81
2023-05-19T14:06:52.026Z,18.92
2023-05-19T14:21:54.159Z,19.85
2023-05-19T14:36:55.897Z,20.10
2023-05-19T14:51:57.695Z,19.88
2023-05-19T15:07:09.776Z,20.11
2023-05-19T15:22:12.677Z,20.81
2023-05-19T15:37:14.437Z,20.85
2023-05-19T15:52:16.266Z,19.93
2023-05-19T16:07:18.640Z,19.42
2023-05-19T16:22:24.626Z,18.99
2023-05-19T16:37:26.693Z,18.89
2023-05-19T16:52:28.603Z,18.97
2023-05-19T17:07:30.658Z,18.99
2023-05-19T17:22:32.524Z,18.18
2023-05-19T17:37:34.421Z,18.10
2023-05-19T17:52:36.671Z,18.42
2023-05-19T18:07:41.371Z,18.44
2023-05-19T18:22:43.478Z,18.50
2023-05-19T18:37:45.289Z,18.38
2023-05-19T18:52:47.111Z,17.55
2023-05-19T19:07:49.486Z,16.80
2023-05-19T19:22:52.203Z,16.29
2023-05-19T19:37:54.154Z,16.17
2023-05-19T19:52:56.099Z,15.56
2023-05-19T20:07:57.852Z,15.77
2023-05-19T20:22:59.709Z,15.25
2023-05-19T20:38:01.623Z,15.12
2023-05-19T20:53:03.620Z,14.67
2023-05-19T21:08:05.596Z,15.10
2023-05-19T21:23:07.389Z,15.32
2023-05-19T21:38:22.704Z,15.31
2023-05-19T21:53:25.962Z,15.07
2023-05-19T22:08:27.918Z,14.99
2023-05-19T22:23:29.859Z,14.88
2023-05-19T22:38:31.639Z,14.74
2023-05-19T22:53:33.425Z,14.57
2023-05-19T23:08:35.207Z,14.50
2023-05-19T23:23:37.036Z,14.27
2023-05-19T23:38:39.064Z,14.17
2023-05-19T23:53:40.852Z,14.14
